Aeroporto :
LOGIN :

Iscrizione | Disclaimer

   EN    FR    IT 

 










Sommario :    VFR   VFR Marginale   IFR   IFR Intensivo   IFR Molto Intensivo
Visibilità : 
Base nubi : 
>= 8 km
>= 3000ft
5 / 8 km
1000 / 3000 ft
1500m / 5 km
500 / 1000 ft
800 / 1500m
200 / 500 ft
< 800m
< 200 ft
Simboli :   Temporali  Nebbia  Neve Forte  Precipitazioni Forti  Vento > 20 kt
SIGMETs :   Varie  Temporali  Ghiacco  Turbolenza  Onda orograficha  Ceneri Vulcaniche






- Altitudine del aeroporto : 1411 ft
- Codice IATA : SZG


LOWS - Salzburg

ULTIMO METAR :
  • 171150Z VRB02KT 8000 -SHRA FEW005 BKN007 06/05 Q1004 TEMPO RA FEW005 BKN005

METARs OBSOLETI :
  • 171120Z VRB01KT 8000 FEW005 BKN008 06/05 Q1004 TEMPO RA FEW005 BKN012
  • 171050Z 30003KT 260V340 8000 SCT005 BKN007 05/04 Q1004 TEMPO 3500 RA
  • 171020Z 28004KT 240V320 6000 FEW003 BKN005 04/04 Q1005 TEMPO 3500 RA
  • 170950Z 30006KT 270V330 4500 BR FEW003 BKN005 04/04 Q1005 TEMPO 6000 BKN012
  • 170920Z 03003KT 280V080 7000 FEW003 BKN005 04/04 Q1004 TEMPO BKN012

TAF TAF LOWS
Valido dal 17 a 12 ore il 18 a 12 ore UTC


171115Z 1712/1812 33004KT 7000 -RA FEW005 BKN012 TX07/1812Z TN04/1806Z
TEMPO 1712/1714 4000 RA BKN005
TEMPO 1714/1720 02010G20KT SHRA FEW005 SCT015 BKN020
BECMG 1718/1720 3500 BR BKN005
TEMPO 1800/1803 30010G20KT 7000 NSW SCT005 BKN008
BECMG 1802/1804 9999 NSW FEW002 SCT008 BKN030
PROB40
TEMPO 1803/1808 VRB02KT 0800 BCFG BKN008



MetMap, La meteo Aeronautica in un colpo d'occhio ! - Copyright ORBIFLY Dicembre 2007 - Disclaimer

ORBIFLY MET'MAP TEAM :

Programmazione e sviluppo : Alexandra Zaïnal
Concezione e sviluppo : Baudouin d'Aumeries
Co-Programmazione e sviluppo : Marc-Olivier Méhu
Supporto tecnico e logistico : Manuel Goepfert
Aiuto per la traduzione : Arnaldo La Scala

Contatto : metmap@orbifly.com




FONTI E CREDITI :

   NOAA